sensor_id;sensor_type;location;lat;lon;timestamp;P1;durP1;ratioP1;P2;durP2;ratioP2
48635;SDS011;34429;52.332;5.614;2023-02-27T00:00:34;17.10;;;8.50;;
48635;SDS011;34429;52.332;5.614;2023-02-27T00:03:03;18.80;;;8.23;;
48635;SDS011;34429;52.332;5.614;2023-02-27T00:05:31;18.05;;;8.95;;
48635;SDS011;34429;52.332;5.614;2023-02-27T00:08:02;17.70;;;8.32;;
48635;SDS011;34429;52.332;5.614;2023-02-27T00:10:30;17.65;;;7.68;;
48635;SDS011;34429;52.332;5.614;2023-02-27T00:12:58;19.60;;;8.38;;
48635;SDS011;34429;52.332;5.614;2023-02-27T00:15:27;16.52;;;7.97;;
48635;SDS011;34429;52.332;5.614;2023-02-27T00:17:56;22.77;;;8.57;;
48635;SDS011;34429;52.332;5.614;2023-02-27T00:20:25;15.35;;;7.53;;
48635;SDS011;34429;52.332;5.614;2023-02-27T00:22:53;16.00;;;7.60;;
48635;SDS011;34429;52.332;5.614;2023-02-27T00:25:24;16.92;;;7.60;;
48635;SDS011;34429;52.332;5.614;2023-02-27T00:27:52;17.70;;;7.95;;
48635;SDS011;34429;52.332;5.614;2023-02-27T00:30:21;19.83;;;7.95;;
48635;SDS011;34429;52.332;5.614;2023-02-27T00:32:50;16.23;;;7.32;;
48635;SDS011;34429;52.332;5.614;2023-02-27T00:35:19;17.97;;;7.10;;
48635;SDS011;34429;52.332;5.614;2023-02-27T00:37:48;19.85;;;7.78;;
48635;SDS011;34429;52.332;5.614;2023-02-27T00:40:16;14.65;;;7.22;;
48635;SDS011;34429;52.332;5.614;2023-02-27T00:42:47;15.98;;;5.95;;
48635;SDS011;34429;52.332;5.614;2023-02-27T00:45:16;13.07;;;5.75;;
48635;SDS011;34429;52.332;5.614;2023-02-27T00:47:44;16.52;;;6.07;;
48635;SDS011;34429;52.332;5.614;2023-02-27T00:50:13;10.75;;;5.55;;
48635;SDS011;34429;52.332;5.614;2023-02-27T00:52:41;12.07;;;5.50;;
48635;SDS011;34429;52.332;5.614;2023-02-27T00:55:10;11.52;;;5.65;;
48635;SDS011;34429;52.332;5.614;2023-02-27T00:57:38;11.77;;;5.30;;
48635;SDS011;34429;52.332;5.614;2023-02-27T01:00:10;12.80;;;5.53;;
48635;SDS011;34429;52.332;5.614;2023-02-27T01:02:39;9.57;;;5.35;;
48635;SDS011;34429;52.332;5.614;2023-02-27T01:05:08;14.05;;;5.32;;
48635;SDS011;34429;52.332;5.614;2023-02-27T01:10:06;12.70;;;6.30;;
48635;SDS011;34429;52.332;5.614;2023-02-27T01:12:35;13.07;;;5.18;;
48635;SDS011;34429;52.332;5.614;2023-02-27T01:15:04;10.83;;;4.97;;
48635;SDS011;34429;52.332;5.614;2023-02-27T01:17:36;9.57;;;4.85;;
48635;SDS011;34429;52.332;5.614;2023-02-27T01:20:06;13.25;;;4.57;;
48635;SDS011;34429;52.332;5.614;2023-02-27T01:22:36;9.82;;;4.15;;
48635;SDS011;34429;52.332;5.614;2023-02-27T01:25:05;9.75;;;4.75;;
48635;SDS011;34429;52.332;5.614;2023-02-27T01:27:35;12.15;;;5.40;;
48635;SDS011;34429;52.332;5.614;2023-02-27T01:30:04;6.55;;;4.45;;
48635;SDS011;34429;52.332;5.614;2023-02-27T01:32:38;9.50;;;4.28;;
48635;SDS011;34429;52.332;5.614;2023-02-27T01:35:06;7.32;;;4.47;;
48635;SDS011;34429;52.332;5.614;2023-02-27T01:37:35;9.05;;;4.35;;
48635;SDS011;34429;52.332;5.614;2023-02-27T01:40:04;8.67;;;4.10;;
48635;SDS011;34429;52.332;5.614;2023-02-27T01:42:34;7.43;;;3.97;;
48635;SDS011;34429;52.332;5.614;2023-02-27T01:48:05;5.50;;;3.60;;
48635;SDS011;34429;52.332;5.614;2023-02-27T01:50:41;10.40;;;3.53;;
48635;SDS011;34429;52.332;5.614;2023-02-27T01:53:15;8.48;;;3.72;;
48635;SDS011;34429;52.332;5.614;2023-02-27T01:55:48;11.65;;;4.40;;
48635;SDS011;34429;52.332;5.614;2023-02-27T01:58:17;8.90;;;4.18;;
48635;SDS011;34429;52.332;5.614;2023-02-27T02:00:46;10.30;;;3.40;;
48635;SDS011;34429;52.332;5.614;2023-02-27T02:03:22;7.57;;;4.10;;
48635;SDS011;34429;52.332;5.614;2023-02-27T02:05:57;9.07;;;4.68;;
48635;SDS011;34429;52.332;5.614;2023-02-27T02:08:30;10.45;;;3.60;;
48635;SDS011;34429;52.332;5.614;2023-02-27T02:11:02;6.75;;;3.95;;
48635;SDS011;34429;52.332;5.614;2023-02-27T02:13:30;7.40;;;4.13;;
48635;SDS011;34429;52.332;5.614;2023-02-27T02:16:03;8.18;;;3.92;;
48635;SDS011;34429;52.332;5.614;2023-02-27T02:18:54;7.22;;;3.17;;
48635;SDS011;34429;52.332;5.614;2023-02-27T02:27:48;7.00;;;3.60;;
48635;SDS011;34429;52.332;5.614;2023-02-27T02:33:29;6.32;;;3.88;;
48635;SDS011;34429;52.332;5.614;2023-02-27T02:36:33;7.05;;;3.83;;
48635;SDS011;34429;52.332;5.614;2023-02-27T02:42:31;9.27;;;3.67;;
48635;SDS011;34429;52.332;5.614;2023-02-27T02:45:08;6.88;;;3.70;;
48635;SDS011;34429;52.332;5.614;2023-02-27T02:47:45;6.55;;;3.30;;
48635;SDS011;34429;52.332;5.614;2023-02-27T02:50:24;7.47;;;3.78;;
48635;SDS011;34429;52.332;5.614;2023-02-27T02:52:59;7.57;;;3.60;;
48635;SDS011;34429;52.332;5.614;2023-02-27T02:55:36;6.03;;;3.25;;
48635;SDS011;34429;52.332;5.614;2023-02-27T02:58:10;5.97;;;3.22;;
48635;SDS011;34429;52.332;5.614;2023-02-27T03:00:45;5.90;;;3.20;;
48635;SDS011;34429;52.332;5.614;2023-02-27T03:03:18;6.70;;;3.45;;
48635;SDS011;34429;52.332;5.614;2023-02-27T03:05:52;6.05;;;3.22;;
48635;SDS011;34429;52.332;5.614;2023-02-27T03:08:27;9.23;;;3.25;;
48635;SDS011;34429;52.332;5.614;2023-02-27T03:11:02;5.72;;;2.88;;
48635;SDS011;34429;52.332;5.614;2023-02-27T03:13:33;4.53;;;2.70;;
48635;SDS011;34429;52.332;5.614;2023-02-27T03:16:06;5.93;;;2.97;;
48635;SDS011;34429;52.332;5.614;2023-02-27T03:18:39;9.25;;;3.40;;
48635;SDS011;34429;52.332;5.614;2023-02-27T03:21:14;7.40;;;3.28;;
48635;SDS011;34429;52.332;5.614;2023-02-27T03:23:47;5.60;;;3.58;;
48635;SDS011;34429;52.332;5.614;2023-02-27T03:26:22;7.93;;;2.83;;
48635;SDS011;34429;52.332;5.614;2023-02-27T03:28:58;5.45;;;3.25;;
48635;SDS011;34429;52.332;5.614;2023-02-27T03:31:30;6.28;;;2.88;;
48635;SDS011;34429;52.332;5.614;2023-02-27T03:34:07;6.00;;;3.13;;
48635;SDS011;34429;52.332;5.614;2023-02-27T03:36:45;9.18;;;3.22;;
48635;SDS011;34429;52.332;5.614;2023-02-27T03:39:22;5.00;;;2.95;;
48635;SDS011;34429;52.332;5.614;2023-02-27T03:42:00;6.50;;;3.28;;
48635;SDS011;34429;52.332;5.614;2023-02-27T03:44:35;10.38;;;3.45;;
48635;SDS011;34429;52.332;5.614;2023-02-27T03:47:14;4.90;;;2.85;;
48635;SDS011;34429;52.332;5.614;2023-02-27T03:49:43;4.15;;;2.75;;
48635;SDS011;34429;52.332;5.614;2023-02-27T03:52:15;7.45;;;3.05;;
48635;SDS011;34429;52.332;5.614;2023-02-27T03:54:44;10.70;;;3.15;;
48635;SDS011;34429;52.332;5.614;2023-02-27T03:57:22;5.72;;;2.60;;
48635;SDS011;34429;52.332;5.614;2023-02-27T03:59:50;7.22;;;3.03;;
48635;SDS011;34429;52.332;5.614;2023-02-27T04:02:19;5.85;;;3.05;;
48635;SDS011;34429;52.332;5.614;2023-02-27T04:07:21;5.90;;;3.05;;
48635;SDS011;34429;52.332;5.614;2023-02-27T04:10:00;6.53;;;3.17;;
48635;SDS011;34429;52.332;5.614;2023-02-27T04:12:51;10.68;;;3.10;;
48635;SDS011;34429;52.332;5.614;2023-02-27T04:15:32;6.75;;;3.33;;
48635;SDS011;34429;52.332;5.614;2023-02-27T04:18:16;7.68;;;3.13;;
48635;SDS011;34429;52.332;5.614;2023-02-27T04:20:49;4.75;;;2.63;;
48635;SDS011;34429;52.332;5.614;2023-02-27T04:23:22;6.00;;;3.13;;
48635;SDS011;34429;52.332;5.614;2023-02-27T04:26:08;6.20;;;2.70;;
48635;SDS011;34429;52.332;5.614;2023-02-27T04:28:51;4.00;;;2.60;;
48635;SDS011;34429;52.332;5.614;2023-02-27T04:31:27;5.35;;;2.63;;
48635;SDS011;34429;52.332;5.614;2023-02-27T04:34:00;5.13;;;2.92;;
48635;SDS011;34429;52.332;5.614;2023-02-27T04:36:33;8.85;;;2.78;;
48635;SDS011;34429;52.332;5.614;2023-02-27T04:39:07;9.35;;;2.85;;
48635;SDS011;34429;52.332;5.614;2023-02-27T04:41:40;5.72;;;2.80;;
48635;SDS011;34429;52.332;5.614;2023-02-27T04:44:16;6.90;;;2.83;;
48635;SDS011;34429;52.332;5.614;2023-02-27T04:46:47;5.03;;;2.42;;
48635;SDS011;34429;52.332;5.614;2023-02-27T04:49:17;7.75;;;2.70;;
48635;SDS011;34429;52.332;5.614;2023-02-27T04:51:50;6.25;;;2.67;;
48635;SDS011;34429;52.332;5.614;2023-02-27T04:54:25;8.10;;;2.97;;
48635;SDS011;34429;52.332;5.614;2023-02-27T04:56:58;5.65;;;2.38;;
48635;SDS011;34429;52.332;5.614;2023-02-27T04:59:33;5.68;;;3.22;;
48635;SDS011;34429;52.332;5.614;2023-02-27T05:02:07;5.55;;;2.83;;
48635;SDS011;34429;52.332;5.614;2023-02-27T05:04:41;6.43;;;2.65;;
48635;SDS011;34429;52.332;5.614;2023-02-27T05:07:12;6.80;;;2.67;;
48635;SDS011;34429;52.332;5.614;2023-02-27T05:09:45;7.30;;;2.95;;
48635;SDS011;34429;52.332;5.614;2023-02-27T05:12:19;8.43;;;2.70;;
48635;SDS011;34429;52.332;5.614;2023-02-27T05:14:55;4.55;;;2.60;;
48635;SDS011;34429;52.332;5.614;2023-02-27T05:17:28;5.22;;;2.80;;
48635;SDS011;34429;52.332;5.614;2023-02-27T05:20:01;6.65;;;2.97;;
48635;SDS011;34429;52.332;5.614;2023-02-27T05:22:33;9.13;;;3.17;;
48635;SDS011;34429;52.332;5.614;2023-02-27T05:25:11;7.40;;;3.25;;
48635;SDS011;34429;52.332;5.614;2023-02-27T05:27:43;5.78;;;3.10;;
48635;SDS011;34429;52.332;5.614;2023-02-27T05:30:20;6.03;;;2.78;;
48635;SDS011;34429;52.332;5.614;2023-02-27T05:32:54;5.90;;;2.70;;
48635;SDS011;34429;52.332;5.614;2023-02-27T05:35:27;5.35;;;2.95;;
48635;SDS011;34429;52.332;5.614;2023-02-27T05:38:01;5.35;;;2.78;;
48635;SDS011;34429;52.332;5.614;2023-02-27T05:40:37;8.73;;;3.47;;
48635;SDS011;34429;52.332;5.614;2023-02-27T05:43:11;5.57;;;3.20;;
48635;SDS011;34429;52.332;5.614;2023-02-27T05:45:49;7.82;;;3.63;;
48635;SDS011;34429;52.332;5.614;2023-02-27T05:48:20;6.85;;;3.00;;
48635;SDS011;34429;52.332;5.614;2023-02-27T05:50:52;6.13;;;3.67;;
48635;SDS011;34429;52.332;5.614;2023-02-27T05:53:23;7.60;;;3.75;;
48635;SDS011;34429;52.332;5.614;2023-02-27T05:55:57;8.27;;;3.70;;
48635;SDS011;34429;52.332;5.614;2023-02-27T05:58:29;6.75;;;3.90;;
48635;SDS011;34429;52.332;5.614;2023-02-27T06:01:05;9.98;;;3.90;;
48635;SDS011;34429;52.332;5.614;2023-02-27T06:03:36;5.90;;;3.58;;
48635;SDS011;34429;52.332;5.614;2023-02-27T06:06:07;6.25;;;3.40;;
48635;SDS011;34429;52.332;5.614;2023-02-27T06:08:38;7.75;;;3.63;;
48635;SDS011;34429;52.332;5.614;2023-02-27T06:11:07;7.75;;;3.63;;
48635;SDS011;34429;52.332;5.614;2023-02-27T06:13:35;13.75;;;4.55;;
48635;SDS011;34429;52.332;5.614;2023-02-27T06:16:07;8.15;;;3.80;;
48635;SDS011;34429;52.332;5.614;2023-02-27T06:18:37;9.23;;;3.53;;
48635;SDS011;34429;52.332;5.614;2023-02-27T06:21:05;9.23;;;3.90;;
48635;SDS011;34429;52.332;5.614;2023-02-27T06:23:33;9.18;;;4.00;;
48635;SDS011;34429;52.332;5.614;2023-02-27T06:26:02;9.02;;;4.18;;
48635;SDS011;34429;52.332;5.614;2023-02-27T06:28:30;7.45;;;3.78;;
48635;SDS011;34429;52.332;5.614;2023-02-27T06:30:59;7.30;;;3.92;;
48635;SDS011;34429;52.332;5.614;2023-02-27T06:33:29;13.05;;;5.30;;
48635;SDS011;34429;52.332;5.614;2023-02-27T06:35:58;12.55;;;5.32;;
48635;SDS011;34429;52.332;5.614;2023-02-27T06:38:26;14.82;;;5.10;;
48635;SDS011;34429;52.332;5.614;2023-02-27T06:40:55;10.68;;;5.53;;
48635;SDS011;34429;52.332;5.614;2023-02-27T06:43:23;9.52;;;5.00;;
48635;SDS011;34429;52.332;5.614;2023-02-27T06:45:52;10.68;;;4.97;;
48635;SDS011;34429;52.332;5.614;2023-02-27T06:50:53;11.40;;;5.88;;
48635;SDS011;34429;52.332;5.614;2023-02-27T06:53:23;11.45;;;5.90;;
48635;SDS011;34429;52.332;5.614;2023-02-27T06:55:51;9.68;;;6.13;;
48635;SDS011;34429;52.332;5.614;2023-02-27T06:58:20;9.50;;;5.07;;
48635;SDS011;34429;52.332;5.614;2023-02-27T07:00:48;13.52;;;5.85;;
48635;SDS011;34429;52.332;5.614;2023-02-27T07:03:17;8.45;;;5.88;;
48635;SDS011;34429;52.332;5.614;2023-02-27T07:05:45;13.90;;;5.10;;
48635;SDS011;34429;52.332;5.614;2023-02-27T07:08:17;10.07;;;5.17;;
48635;SDS011;34429;52.332;5.614;2023-02-27T07:10:45;15.07;;;5.65;;
48635;SDS011;34429;52.332;5.614;2023-02-27T07:13:14;11.20;;;5.13;;
48635;SDS011;34429;52.332;5.614;2023-02-27T07:15:42;8.75;;;5.03;;
48635;SDS011;34429;52.332;5.614;2023-02-27T07:18:11;9.80;;;4.90;;
48635;SDS011;34429;52.332;5.614;2023-02-27T07:20:39;8.85;;;4.53;;
48635;SDS011;34429;52.332;5.614;2023-02-27T07:23:08;11.73;;;5.72;;
48635;SDS011;34429;52.332;5.614;2023-02-27T07:25:39;8.02;;;4.72;;
48635;SDS011;34429;52.332;5.614;2023-02-27T07:28:07;11.75;;;5.63;;
48635;SDS011;34429;52.332;5.614;2023-02-27T07:30:35;10.48;;;5.60;;
48635;SDS011;34429;52.332;5.614;2023-02-27T07:33:04;12.93;;;5.93;;
48635;SDS011;34429;52.332;5.614;2023-02-27T07:35:32;10.20;;;5.82;;
48635;SDS011;34429;52.332;5.614;2023-02-27T07:38:01;11.27;;;5.82;;
48635;SDS011;34429;52.332;5.614;2023-02-27T07:40:30;11.68;;;5.88;;
48635;SDS011;34429;52.332;5.614;2023-02-27T07:43:01;11.65;;;5.50;;
48635;SDS011;34429;52.332;5.614;2023-02-27T07:45:29;9.98;;;5.47;;
48635;SDS011;34429;52.332;5.614;2023-02-27T07:47:58;12.13;;;5.55;;
48635;SDS011;34429;52.332;5.614;2023-02-27T07:50:26;10.05;;;5.50;;
48635;SDS011;34429;52.332;5.614;2023-02-27T07:53:00;11.35;;;5.38;;
48635;SDS011;34429;52.332;5.614;2023-02-27T07:55:29;9.43;;;5.10;;
48635;SDS011;34429;52.332;5.614;2023-02-27T07:57:58;8.27;;;4.93;;
48635;SDS011;34429;52.332;5.614;2023-02-27T08:00:28;8.93;;;5.07;;
48635;SDS011;34429;52.332;5.614;2023-02-27T08:02:57;12.20;;;5.80;;
48635;SDS011;34429;52.332;5.614;2023-02-27T08:05:25;7.88;;;5.40;;
48635;SDS011;34429;52.332;5.614;2023-02-27T08:08:01;11.05;;;4.97;;
48635;SDS011;34429;52.332;5.614;2023-02-27T08:10:30;10.30;;;4.63;;
48635;SDS011;34429;52.332;5.614;2023-02-27T08:13:01;9.98;;;5.10;;
48635;SDS011;34429;52.332;5.614;2023-02-27T08:15:29;10.48;;;5.18;;
48635;SDS011;34429;52.332;5.614;2023-02-27T08:17:58;6.75;;;4.82;;
48635;SDS011;34429;52.332;5.614;2023-02-27T08:20:26;10.15;;;5.13;;
48635;SDS011;34429;52.332;5.614;2023-02-27T08:25:24;7.57;;;4.32;;
48635;SDS011;34429;52.332;5.614;2023-02-27T08:27:52;10.45;;;4.15;;
48635;SDS011;34429;52.332;5.614;2023-02-27T08:30:23;15.65;;;4.78;;
48635;SDS011;34429;52.332;5.614;2023-02-27T08:32:51;10.25;;;4.20;;
48635;SDS011;34429;52.332;5.614;2023-02-27T08:35:20;6.70;;;3.57;;
48635;SDS011;34429;52.332;5.614;2023-02-27T08:37:49;8.05;;;3.55;;
48635;SDS011;34429;52.332;5.614;2023-02-27T08:40:17;8.15;;;4.32;;
48635;SDS011;34429;52.332;5.614;2023-02-27T08:42:46;7.20;;;3.47;;
48635;SDS011;34429;52.332;5.614;2023-02-27T08:45:15;8.95;;;3.50;;
48635;SDS011;34429;52.332;5.614;2023-02-27T08:47:46;5.45;;;2.55;;
48635;SDS011;34429;52.332;5.614;2023-02-27T08:50:15;8.52;;;3.25;;
48635;SDS011;34429;52.332;5.614;2023-02-27T08:52:44;11.32;;;3.20;;
48635;SDS011;34429;52.332;5.614;2023-02-27T08:57:41;6.63;;;2.78;;
48635;SDS011;34429;52.332;5.614;2023-02-27T09:00:10;6.50;;;2.88;;
48635;SDS011;34429;52.332;5.614;2023-02-27T09:02:40;6.47;;;2.75;;
48635;SDS011;34429;52.332;5.614;2023-02-27T09:05:11;6.57;;;2.50;;
48635;SDS011;34429;52.332;5.614;2023-02-27T09:07:40;4.60;;;2.63;;
48635;SDS011;34429;52.332;5.614;2023-02-27T09:10:09;5.18;;;2.72;;
48635;SDS011;34429;52.332;5.614;2023-02-27T09:12:38;6.40;;;2.53;;
48635;SDS011;34429;52.332;5.614;2023-02-27T09:15:07;7.18;;;2.80;;
48635;SDS011;34429;52.332;5.614;2023-02-27T09:17:37;10.32;;;2.28;;
48635;SDS011;34429;52.332;5.614;2023-02-27T09:20:06;4.33;;;2.27;;
48635;SDS011;34429;52.332;5.614;2023-02-27T09:22:38;11.52;;;3.17;;
48635;SDS011;34429;52.332;5.614;2023-02-27T09:25:07;6.05;;;2.47;;
48635;SDS011;34429;52.332;5.614;2023-02-27T09:27:36;7.15;;;2.30;;
48635;SDS011;34429;52.332;5.614;2023-02-27T09:30:05;8.85;;;2.65;;
48635;SDS011;34429;52.332;5.614;2023-02-27T09:32:35;9.05;;;3.13;;
48635;SDS011;34429;52.332;5.614;2023-02-27T09:35:03;5.75;;;2.30;;
48635;SDS011;34429;52.332;5.614;2023-02-27T09:37:33;7.47;;;2.63;;
48635;SDS011;34429;52.332;5.614;2023-02-27T09:40:05;8.27;;;2.63;;
48635;SDS011;34429;52.332;5.614;2023-02-27T09:42:35;8.55;;;2.42;;
48635;SDS011;34429;52.332;5.614;2023-02-27T09:45:11;6.75;;;2.63;;
48635;SDS011;34429;52.332;5.614;2023-02-27T09:47:48;5.13;;;2.30;;
48635;SDS011;34429;52.332;5.614;2023-02-27T09:50:25;9.73;;;3.00;;
48635;SDS011;34429;52.332;5.614;2023-02-27T09:53:01;7.18;;;2.63;;
48635;SDS011;34429;52.332;5.614;2023-02-27T09:55:33;5.78;;;2.83;;
48635;SDS011;34429;52.332;5.614;2023-02-27T09:58:06;10.07;;;3.10;;
48635;SDS011;34429;52.332;5.614;2023-02-27T10:00:52;8.85;;;2.22;;
48635;SDS011;34429;52.332;5.614;2023-02-27T10:03:29;5.47;;;1.90;;
48635;SDS011;34429;52.332;5.614;2023-02-27T10:06:15;3.17;;;1.52;;
48635;SDS011;34429;52.332;5.614;2023-02-27T10:08:51;6.32;;;1.80;;
48635;SDS011;34429;52.332;5.614;2023-02-27T10:11:42;6.93;;;1.85;;
48635;SDS011;34429;52.332;5.614;2023-02-27T10:16:53;5.80;;;2.42;;
48635;SDS011;34429;52.332;5.614;2023-02-27T10:19:26;6.57;;;1.90;;
48635;SDS011;34429;52.332;5.614;2023-02-27T10:21:58;4.50;;;1.77;;
48635;SDS011;34429;52.332;5.614;2023-02-27T10:24:33;9.85;;;2.08;;
48635;SDS011;34429;52.332;5.614;2023-02-27T10:27:11;6.28;;;2.10;;
48635;SDS011;34429;52.332;5.614;2023-02-27T10:29:45;9.00;;;2.17;;
48635;SDS011;34429;52.332;5.614;2023-02-27T10:32:16;6.28;;;2.35;;
48635;SDS011;34429;52.332;5.614;2023-02-27T10:34:49;7.97;;;2.35;;
48635;SDS011;34429;52.332;5.614;2023-02-27T10:37:22;7.68;;;2.05;;
48635;SDS011;34429;52.332;5.614;2023-02-27T10:39:54;6.80;;;2.22;;
48635;SDS011;34429;52.332;5.614;2023-02-27T10:42:28;8.73;;;2.33;;
48635;SDS011;34429;52.332;5.614;2023-02-27T10:45:00;6.40;;;1.90;;
48635;SDS011;34429;52.332;5.614;2023-02-27T10:47:28;4.90;;;1.63;;
48635;SDS011;34429;52.332;5.614;2023-02-27T10:50:00;5.95;;;2.00;;
48635;SDS011;34429;52.332;5.614;2023-02-27T10:52:28;3.78;;;1.95;;
48635;SDS011;34429;52.332;5.614;2023-02-27T10:57:45;3.85;;;1.50;;
48635;SDS011;34429;52.332;5.614;2023-02-27T11:00:22;3.45;;;1.42;;
48635;SDS011;34429;52.332;5.614;2023-02-27T11:02:53;9.95;;;2.25;;
48635;SDS011;34429;52.332;5.614;2023-02-27T11:05:23;3.40;;;1.90;;
48635;SDS011;34429;52.332;5.614;2023-02-27T11:07:53;4.20;;;1.60;;
48635;SDS011;34429;52.332;5.614;2023-02-27T11:10:24;4.38;;;1.30;;
48635;SDS011;34429;52.332;5.614;2023-02-27T11:13:01;3.80;;;1.30;;
48635;SDS011;34429;52.332;5.614;2023-02-27T11:15:31;1.67;;;0.80;;
48635;SDS011;34429;52.332;5.614;2023-02-27T11:18:18;5.93;;;1.30;;
48635;SDS011;34429;52.332;5.614;2023-02-27T11:20:48;4.95;;;1.10;;
48635;SDS011;34429;52.332;5.614;2023-02-27T11:25:46;3.55;;;1.50;;
48635;SDS011;34429;52.332;5.614;2023-02-27T11:28:23;3.08;;;1.30;;
48635;SDS011;34429;52.332;5.614;2023-02-27T11:30:56;2.92;;;1.40;;
48635;SDS011;34429;52.332;5.614;2023-02-27T11:33:27;4.30;;;1.33;;
48635;SDS011;34429;52.332;5.614;2023-02-27T11:35:58;3.55;;;1.30;;
48635;SDS011;34429;52.332;5.614;2023-02-27T11:38:27;1.60;;;0.88;;
48635;SDS011;34429;52.332;5.614;2023-02-27T11:40:59;2.42;;;0.90;;
48635;SDS011;34429;52.332;5.614;2023-02-27T11:43:32;2.25;;;1.10;;
48635;SDS011;34429;52.332;5.614;2023-02-27T11:46:04;4.22;;;1.40;;
48635;SDS011;34429;52.332;5.614;2023-02-27T11:48:37;2.40;;;1.48;;
48635;SDS011;34429;52.332;5.614;2023-02-27T11:51:14;8.77;;;1.40;;
48635;SDS011;34429;52.332;5.614;2023-02-27T11:53:56;3.17;;;1.30;;
48635;SDS011;34429;52.332;5.614;2023-02-27T11:56:34;2.33;;;1.13;;
48635;SDS011;34429;52.332;5.614;2023-02-27T11:59:11;7.22;;;1.83;;
48635;SDS011;34429;52.332;5.614;2023-02-27T12:01:51;3.65;;;1.30;;
48635;SDS011;34429;52.332;5.614;2023-02-27T12:04:23;4.22;;;1.30;;
48635;SDS011;34429;52.332;5.614;2023-02-27T12:06:57;3.38;;;1.25;;
48635;SDS011;34429;52.332;5.614;2023-02-27T12:09:33;3.20;;;1.10;;
48635;SDS011;34429;52.332;5.614;2023-02-27T12:12:08;2.58;;;1.00;;
48635;SDS011;34429;52.332;5.614;2023-02-27T12:14:49;2.85;;;1.27;;
48635;SDS011;34429;52.332;5.614;2023-02-27T12:17:25;1.63;;;1.00;;
48635;SDS011;34429;52.332;5.614;2023-02-27T12:20:17;3.83;;;1.20;;
48635;SDS011;34429;52.332;5.614;2023-02-27T12:22:51;1.90;;;0.90;;
48635;SDS011;34429;52.332;5.614;2023-02-27T12:25:34;1.63;;;0.80;;
48635;SDS011;34429;52.332;5.614;2023-02-27T12:28:11;2.58;;;1.27;;
48635;SDS011;34429;52.332;5.614;2023-02-27T12:30:54;1.73;;;1.10;;
48635;SDS011;34429;52.332;5.614;2023-02-27T12:33:35;4.13;;;0.95;;
48635;SDS011;34429;52.332;5.614;2023-02-27T12:36:09;3.45;;;1.17;;
48635;SDS011;34429;52.332;5.614;2023-02-27T12:38:39;4.07;;;1.15;;
48635;SDS011;34429;52.332;5.614;2023-02-27T12:41:16;2.17;;;1.10;;
48635;SDS011;34429;52.332;5.614;2023-02-27T12:44:05;1.42;;;1.08;;
48635;SDS011;34429;52.332;5.614;2023-02-27T12:46:52;2.83;;;1.10;;
48635;SDS011;34429;52.332;5.614;2023-02-27T12:52:07;6.30;;;1.05;;
48635;SDS011;34429;52.332;5.614;2023-02-27T12:57:22;3.42;;;0.80;;
48635;SDS011;34429;52.332;5.614;2023-02-27T13:00:00;2.55;;;1.35;;
48635;SDS011;34429;52.332;5.614;2023-02-27T13:02:43;4.63;;;1.60;;
48635;SDS011;34429;52.332;5.614;2023-02-27T13:07:55;5.15;;;2.88;;
48635;SDS011;34429;52.332;5.614;2023-02-27T13:10:34;3.47;;;1.42;;
48635;SDS011;34429;52.332;5.614;2023-02-27T13:13:10;2.15;;;0.90;;
48635;SDS011;34429;52.332;5.614;2023-02-27T13:15:44;2.90;;;1.15;;
48635;SDS011;34429;52.332;5.614;2023-02-27T13:18:27;4.55;;;1.30;;
48635;SDS011;34429;52.332;5.614;2023-02-27T13:20:59;4.38;;;1.38;;
48635;SDS011;34429;52.332;5.614;2023-02-27T13:23:34;2.13;;;1.08;;
48635;SDS011;34429;52.332;5.614;2023-02-27T13:26:13;2.13;;;0.93;;
48635;SDS011;34429;52.332;5.614;2023-02-27T13:28:48;2.22;;;0.90;;
48635;SDS011;34429;52.332;5.614;2023-02-27T13:31:19;2.38;;;0.90;;
48635;SDS011;34429;52.332;5.614;2023-02-27T13:33:58;3.58;;;1.30;;
48635;SDS011;34429;52.332;5.614;2023-02-27T13:54:26;1.55;;;0.65;;
48635;SDS011;34429;52.332;5.614;2023-02-27T14:00:01;2.83;;;1.55;;
48635;SDS011;34429;52.332;5.614;2023-02-27T14:02:40;2.13;;;1.15;;
48635;SDS011;34429;52.332;5.614;2023-02-27T14:05:12;5.47;;;1.38;;
48635;SDS011;34429;52.332;5.614;2023-02-27T14:07:48;4.65;;;2.63;;
48635;SDS011;34429;52.332;5.614;2023-02-27T14:10:26;3.63;;;1.50;;
48635;SDS011;34429;52.332;5.614;2023-02-27T14:12:57;4.80;;;1.70;;
48635;SDS011;34429;52.332;5.614;2023-02-27T14:24:25;3.67;;;2.00;;
48635;SDS011;34429;52.332;5.614;2023-02-27T14:27:03;3.03;;;1.88;;
48635;SDS011;34429;52.332;5.614;2023-02-27T14:29:42;2.38;;;1.35;;
48635;SDS011;34429;52.332;5.614;2023-02-27T14:32:15;4.50;;;1.98;;
48635;SDS011;34429;52.332;5.614;2023-02-27T14:34:47;3.92;;;1.33;;
48635;SDS011;34429;52.332;5.614;2023-02-27T14:37:18;3.85;;;1.75;;
48635;SDS011;34429;52.332;5.614;2023-02-27T14:39:50;4.03;;;2.33;;
48635;SDS011;34429;52.332;5.614;2023-02-27T14:42:31;2.28;;;1.33;;
48635;SDS011;34429;52.332;5.614;2023-02-27T14:45:12;5.13;;;2.30;;
48635;SDS011;34429;52.332;5.614;2023-02-27T14:47:43;3.13;;;0.98;;
48635;SDS011;34429;52.332;5.614;2023-02-27T14:50:23;3.05;;;2.38;;
48635;SDS011;34429;52.332;5.614;2023-02-27T14:52:56;5.57;;;2.22;;
48635;SDS011;34429;52.332;5.614;2023-02-27T14:57:59;3.33;;;1.20;;
48635;SDS011;34429;52.332;5.614;2023-02-27T15:00:36;3.20;;;1.00;;
48635;SDS011;34429;52.332;5.614;2023-02-27T15:03:09;4.68;;;1.20;;
48635;SDS011;34429;52.332;5.614;2023-02-27T15:05:44;5.85;;;1.75;;
48635;SDS011;34429;52.332;5.614;2023-02-27T15:08:15;4.35;;;1.65;;
48635;SDS011;34429;52.332;5.614;2023-02-27T15:10:48;6.78;;;3.10;;
48635;SDS011;34429;52.332;5.614;2023-02-27T15:13:23;3.05;;;1.52;;
48635;SDS011;34429;52.332;5.614;2023-02-27T15:18:49;3.33;;;1.48;;
48635;SDS011;34429;52.332;5.614;2023-02-27T15:21:19;2.70;;;1.10;;
48635;SDS011;34429;52.332;5.614;2023-02-27T15:23:52;3.03;;;0.93;;
48635;SDS011;34429;52.332;5.614;2023-02-27T15:26:21;4.45;;;1.48;;
48635;SDS011;34429;52.332;5.614;2023-02-27T15:31:23;2.78;;;1.05;;
48635;SDS011;34429;52.332;5.614;2023-02-27T15:33:56;3.55;;;1.70;;
48635;SDS011;34429;52.332;5.614;2023-02-27T15:36:27;4.35;;;1.40;;
48635;SDS011;34429;52.332;5.614;2023-02-27T15:39:02;3.15;;;1.23;;
48635;SDS011;34429;52.332;5.614;2023-02-27T15:41:33;2.72;;;1.75;;
48635;SDS011;34429;52.332;5.614;2023-02-27T15:44:04;5.15;;;1.48;;
48635;SDS011;34429;52.332;5.614;2023-02-27T15:46:33;5.10;;;2.38;;
48635;SDS011;34429;52.332;5.614;2023-02-27T15:49:01;2.53;;;1.73;;
48635;SDS011;34429;52.332;5.614;2023-02-27T15:51:30;2.00;;;1.30;;
48635;SDS011;34429;52.332;5.614;2023-02-27T15:53:59;3.10;;;1.35;;
48635;SDS011;34429;52.332;5.614;2023-02-27T15:56:30;4.90;;;1.63;;
48635;SDS011;34429;52.332;5.614;2023-02-27T15:59:01;4.00;;;1.05;;
48635;SDS011;34429;52.332;5.614;2023-02-27T16:01:33;2.72;;;1.85;;
48635;SDS011;34429;52.332;5.614;2023-02-27T16:04:03;5.18;;;2.33;;
48635;SDS011;34429;52.332;5.614;2023-02-27T16:06:34;4.82;;;1.60;;
48635;SDS011;34429;52.332;5.614;2023-02-27T16:09:06;5.78;;;2.03;;
48635;SDS011;34429;52.332;5.614;2023-02-27T16:11:47;3.63;;;1.73;;
48635;SDS011;34429;52.332;5.614;2023-02-27T16:17:23;3.70;;;1.80;;
48635;SDS011;34429;52.332;5.614;2023-02-27T16:19:55;4.18;;;1.90;;
48635;SDS011;34429;52.332;5.614;2023-02-27T16:22:25;3.70;;;1.60;;
48635;SDS011;34429;52.332;5.614;2023-02-27T16:25:05;7.03;;;1.90;;
48635;SDS011;34429;52.332;5.614;2023-02-27T16:27:36;4.57;;;1.80;;
48635;SDS011;34429;52.332;5.614;2023-02-27T16:30:10;3.25;;;1.50;;
48635;SDS011;34429;52.332;5.614;2023-02-27T16:32:42;3.30;;;1.50;;
48635;SDS011;34429;52.332;5.614;2023-02-27T16:35:14;3.13;;;1.63;;
48635;SDS011;34429;52.332;5.614;2023-02-27T16:37:45;3.65;;;1.50;;
48635;SDS011;34429;52.332;5.614;2023-02-27T16:40:15;2.72;;;1.30;;
48635;SDS011;34429;52.332;5.614;2023-02-27T16:42:45;3.88;;;1.60;;